METAR Data
IDs: Format: Raw Decoded Include TAF

Data at: 0255 UTC 25 Feb 2021

KVPZ 250156Z AUTO 36004KT 10SM CLR 01/M02 A3016 RMK AO2 SLP219 T00111022